Kezdőlap
METAR-TAF:

METAR-TAF

Repülőterek :

RAF

Spadeadam, Anglia

földrajzi szélesség: 55-03N, földrajzi hosszúság: 002-33W, magasság: 325 m

Jelenlegi meteorológiai megfigyelések

A jelentés 50 perccel ezelõtt készült, 08:50 UTC
Délnyugati szél 10 kt
Hőmérséklet 13°C
Páratartalom 88%
Légköri nyomás 994 hPa
Látótávolság 10 km, vagy több
Kevés felhő 1000 lábon
Szórványos felhőzet 3100 lábon
Szórványos felhőzet 7000 lábon

METAR: EGOM 140850Z 23010KT 9999 FEW010 SCT031 SCT070 13/11 Q0994 RMK BLU

Idő: 10:40 (09:40 UTC)


TAF: hiányzik

Meteorológiai megfigyelések és előrejelzések több, mint 4000 repülőtéren (METAR és TAF jelentéseket).

A térképen piros és sárga pontok jelzik az elérhető meteorológiai állomásokat.

Mozgassa az egeret a pont fölött, hogy megjelenjen az állomás neve.

Azután kattintson az időjárási megfigyelések és előrejelzések megtekintéséhez.

A térkép megváltoztatása: kattintson a fekete keresztel jelölt zöld gombra ráközelítéshez, a vonallal jelölt zöld gombra távolításhoz, vagy a zöld nyilakra a szomszédos térképek eléréséhez.


METAR-TAF: